Time;durP1;ratioP1;P1;durP2;ratioP2;P2;SDS_P1;SDS_P2;PMS_P1;PMS_P2;Temp;Humidity;BMP_temperature;BMP_pressure;BME280_temperature;BME280_humidity;BME280_pressure;Samples;Min_cycle;Max_cycle;Signal;HPM_P1;HPM_P2
2022/06/02 00:00:47;;;;;;;0.00;0.00;;;;;;;;;;5035341;28;99750;-74
2022/06/02 00:03:24;;;;;;;0.00;0.00;;;;;;;;;;5036027;28;97684;-74
2022/06/02 00:05:57;;;;;;;0.00;0.00;;;;;;;;;;5038099;28;98818;-75
2022/06/02 00:08:50;;;;;;;0.00;0.00;;;;;;;;;;5035246;28;98434;-74
2022/06/02 00:11:19;;;;;;;0.00;0.00;;;;;;;;;;4996517;28;99232;-74
2022/06/02 00:14:03;;;;;;;0.00;0.00;;;;;;;;;;5017146;28;101507;-74
2022/06/02 00:16:34;;;;;;;0.00;0.00;;;;;;;;;;5035400;28;98418;-74
2022/06/02 00:19:11;;;;;;;0.10;0.10;;;;;;;;;;5035525;28;98345;-74
2022/06/02 00:21:53;;;;;;;0.00;0.00;;;;;;;;;;5034981;28;100184;-74
2022/06/02 00:24:27;;;;;;;0.00;0.00;;;;;;;;;;5035115;28;98424;-74
2022/06/02 00:27:21;;;;;;;0.00;0.00;;;;;;;;;;5038024;28;98818;-74
2022/06/02 00:29:52;;;;;;;0.00;0.00;;;;;;;;;;4997352;28;97839;-74
2022/06/02 00:32:37;;;;;;;0.00;0.00;;;;;;;;;;5017463;28;98990;-74
2022/06/02 00:35:20;;;;;;;0.00;0.00;;;;;;;;;;5034362;28;99843;-74
2022/06/02 00:38:04;;;;;;;0.28;0.28;;;;;;;;;;5034405;28;99263;-74
2022/06/02 00:40:32;;;;;;;0.00;0.00;;;;;;;;;;5034944;28;99790;-74
2022/06/02 00:43:17;;;;;;;0.00;0.00;;;;;;;;;;5034512;28;100220;-74
2022/06/02 00:45:45;;;;;;;0.00;0.00;;;;;;;;;;5034026;27;98558;-74
2022/06/02 00:48:11;;;;;;;0.00;0.00;;;;;;;;;;5034591;28;98812;-73
2022/06/02 00:50:43;;;;;;;0.00;0.00;;;;;;;;;;5037886;28;99532;-74
2022/06/02 00:53:10;;;;;;;0.00;0.00;;;;;;;;;;5034828;28;99608;-74
2022/06/02 00:58:36;;;;;;;0.00;0.00;;;;;;;;;;5034689;28;98443;-74
2022/06/02 01:01:12;;;;;;;0.00;0.00;;;;;;;;;;5034667;28;99386;-74
2022/06/02 01:03:41;;;;;;;0.00;0.00;;;;;;;;;;5033641;28;100196;-74
2022/06/02 01:06:23;;;;;;;0.00;0.00;;;;;;;;;;5034546;28;98413;-75
2022/06/02 01:08:50;;;;;;;0.00;0.00;;;;;;;;;;5034026;28;100966;-74
2022/06/02 01:11:19;;;;;;;0.00;0.00;;;;;;;;;;5034088;28;99571;-74
2022/06/02 01:13:51;;;;;;;0.00;0.00;;;;;;;;;;5037835;28;98221;-75
2022/06/02 01:16:26;;;;;;;0.00;0.00;;;;;;;;;;5033867;28;99626;-74
2022/06/02 01:19:08;;;;;;;0.00;0.00;;;;;;;;;;5034077;28;98397;-73
2022/06/02 01:21:47;;;;;;;0.00;0.00;;;;;;;;;;5034846;27;99934;-74
2022/06/02 01:24:25;;;;;;;0.00;0.00;;;;;;;;;;5054333;27;99756;-73
2022/06/02 01:27:10;;;;;;;0.00;0.00;;;;;;;;;;5054492;27;98720;-73
2022/06/02 01:30:00;;;;;;;0.00;0.00;;;;;;;;;;5053997;27;99105;-74
2022/06/02 01:32:32;;;;;;;0.00;0.00;;;;;;;;;;5040294;27;99836;-74
2022/06/02 01:35:08;;;;;;;0.00;0.00;;;;;;;;;;5054492;27;98424;-74
2022/06/02 01:37:41;;;;;;;0.00;0.00;;;;;;;;;;5057151;27;99282;-73
2022/06/02 01:40:13;;;;;;;0.00;0.00;;;;;;;;;;5054438;27;98392;-73
2022/06/02 01:42:46;;;;;;;0.00;0.00;;;;;;;;;;5054532;27;99581;-73
2022/06/02 01:45:26;;;;;;;0.00;0.00;;;;;;;;;;5053850;27;99707;-74
2022/06/02 01:48:01;;;;;;;0.00;0.00;;;;;;;;;;5054611;27;97605;-74
2022/06/02 01:50:47;;;;;;;0.00;0.00;;;;;;;;;;5053904;27;98477;-74
2022/06/02 01:53:16;;;;;;;0.00;0.00;;;;;;;;;;5053741;27;99561;-74
2022/06/02 01:56:01;;;;;;;0.00;0.00;;;;;;;;;;5053503;27;99211;-74
2022/06/02 01:58:48;;;;;;;0.00;0.00;;;;;;;;;;5053487;27;100126;-73
2022/06/02 02:01:33;;;;;;;0.00;0.00;;;;;;;;;;5056983;27;99696;-73
2022/06/02 02:04:00;;;;;;;0.00;0.00;;;;;;;;;;5054225;27;99187;-73
2022/06/02 02:06:30;;;;;;;0.00;0.00;;;;;;;;;;5053492;27;99558;-73
2022/06/02 02:09:11;;;;;;;0.00;0.00;;;;;;;;;;5053159;27;98351;-73
2022/06/02 02:11:37;;;;;;;0.00;0.00;;;;;;;;;;5053825;27;98783;-73
2022/06/02 02:14:07;;;;;;;0.00;0.00;;;;;;;;;;5036149;27;99181;-73
2022/06/02 02:16:59;;;;;;;0.00;0.00;;;;;;;;;;5053753;27;98380;-73
2022/06/02 02:19:44;;;;;;;0.00;0.00;;;;;;;;;;5053236;27;99411;-74
2022/06/02 02:22:30;;;;;;;0.00;0.00;;;;;;;;;;5052969;27;100391;-73
2022/06/02 02:24:59;;;;;;;0.00;0.00;;;;;;;;;;5057091;27;98471;-73
2022/06/02 02:30:29;;;;;;;0.00;0.00;;;;;;;;;;5053739;27;98229;-74
2022/06/02 02:33:01;;;;;;;0.00;0.00;;;;;;;;;;5053617;27;99378;-74
2022/06/02 02:35:28;;;;;;;0.00;0.00;;;;;;;;;;5052965;27;99795;-74
2022/06/02 02:38:01;;;;;;;0.00;0.00;;;;;;;;;;5053729;27;98337;-74
2022/06/02 02:40:46;;;;;;;0.00;0.00;;;;;;;;;;5053789;27;99246;-74
2022/06/02 02:43:28;;;;;;;0.00;0.00;;;;;;;;;;5052783;27;101001;-73
2022/06/02 02:45:57;;;;;;;0.00;0.00;;;;;;;;;;5056645;27;98417;-74
2022/06/02 02:48:42;;;;;;;0.00;0.00;;;;;;;;;;5052388;27;100821;-74
2022/06/02 02:51:27;;;;;;;0.00;0.00;;;;;;;;;;5053371;27;98244;-74
2022/06/02 02:54:03;;;;;;;0.00;0.00;;;;;;;;;;5053302;27;99633;-74
2022/06/02 02:56:36;;;;;;;0.00;0.00;;;;;;;;;;5052597;27;99691;-74
2022/06/02 02:59:06;;;;;;;0.00;0.00;;;;;;;;;;5052704;27;100263;-74
2022/06/02 03:01:36;;;;;;;0.00;0.00;;;;;;;;;;5053538;27;98957;-74
2022/06/02 03:04:11;;;;;;;0.00;0.00;;;;;;;;;;5052976;27;99428;-74
2022/06/02 03:06:39;;;;;;;0.00;0.00;;;;;;;;;;5053676;27;97842;-74
2022/06/02 03:09:14;;;;;;;0.00;0.00;;;;;;;;;;5055657;27;98578;-74
2022/06/02 03:11:52;;;;;;;0.00;0.00;;;;;;;;;;5056124;27;98327;-74
2022/06/02 03:14:21;;;;;;;0.30;0.30;;;;;;;;;;5056261;27;99408;-74
2022/06/02 03:16:51;;;;;;;0.00;0.00;;;;;;;;;;5056188;27;99104;-74
2022/06/02 03:19:40;;;;;;;0.00;0.00;;;;;;;;;;5056662;27;98900;-74
2022/06/02 03:22:06;;;;;;;0.00;0.00;;;;;;;;;;5055725;27;99585;-74
2022/06/02 03:24:39;;;;;;;0.00;0.00;;;;;;;;;;5055812;27;99896;-74
2022/06/02 03:27:18;;;;;;;0.00;0.00;;;;;;;;;;5056022;27;98334;-74
2022/06/02 03:29:53;;;;;;;0.00;0.00;;;;;;;;;;5056121;27;98955;-74
2022/06/02 03:32:23;;;;;;;0.00;0.00;;;;;;;;;;5059072;27;99247;-75
2022/06/02 03:35:08;;;;;;;0.00;0.00;;;;;;;;;;5056191;27;98850;-74
2022/06/02 03:37:34;;;;;;;0.00;0.00;;;;;;;;;;5056053;27;99572;-74
2022/06/02 03:40:15;;;;;;;0.00;0.00;;;;;;;;;;5055917;27;99157;-74
2022/06/02 03:43:02;;;;;;;0.00;0.00;;;;;;;;;;5056158;27;100204;-74
2022/06/02 03:45:28;;;;;;;0.00;0.00;;;;;;;;;;5055729;27;99599;-74
2022/06/02 03:48:01;;;;;;;0.00;0.00;;;;;;;;;;5056123;27;98407;-74
2022/06/02 03:50:44;;;;;;;0.00;0.00;;;;;;;;;;5056085;27;99313;-73
2022/06/02 03:53:20;;;;;;;0.00;0.00;;;;;;;;;;5055496;27;99975;-74
2022/06/02 03:55:53;;;;;;;0.00;0.00;;;;;;;;;;5059387;27;98994;-73
2022/06/02 03:58:30;;;;;;;0.00;0.00;;;;;;;;;;5055961;27;98807;-74
2022/06/02 04:00:59;;;;;;;0.00;0.00;;;;;;;;;;5055753;27;98633;-74
2022/06/02 04:03:38;;;;;;;0.00;0.00;;;;;;;;;;5056003;27;99253;-74
2022/06/02 04:06:29;;;;;;;0.00;0.00;;;;;;;;;;5054583;27;100206;-74
2022/06/02 04:09:02;;;;;;;0.00;0.00;;;;;;;;;;5037093;27;98776;-74
2022/06/02 04:14:36;;;;;;;0.00;0.00;;;;;;;;;;5055367;27;99302;-74
2022/06/02 04:17:11;;;;;;;0.00;0.00;;;;;;;;;;5055605;27;98444;-74
2022/06/02 04:22:53;;;;;;;0.00;0.00;;;;;;;;;;5055118;27;98536;-74
2022/06/02 04:25:28;;;;;;;0.00;0.00;;;;;;;;;;5055950;27;99350;-74
2022/06/02 04:28:13;;;;;;;0.00;0.00;;;;;;;;;;5055012;27;99020;-73
2022/06/02 04:30:48;;;;;;;0.00;0.00;;;;;;;;;;5055361;27;98362;-74
2022/06/02 04:33:41;;;;;;;0.00;0.00;;;;;;;;;;5054811;27;99312;-74
2022/06/02 04:36:07;;;;;;;0.00;0.00;;;;;;;;;;5050115;27;99618;-74
2022/06/02 04:38:57;;;;;;;0.00;0.00;;;;;;;;;;5055568;27;98592;-74
2022/06/02 04:41:31;;;;;;;0.00;0.00;;;;;;;;;;5010508;27;99489;-73
2022/06/02 04:44:07;;;;;;;0.00;0.00;;;;;;;;;;5055183;27;98298;-74
2022/06/02 04:46:41;;;;;;;0.00;0.00;;;;;;;;;;5055311;27;99341;-74
2022/06/02 04:49:27;;;;;;;0.00;0.00;;;;;;;;;;5054721;27;99734;-74
2022/06/02 04:51:53;;;;;;;0.10;0.10;;;;;;;;;;5055236;27;98614;-74
2022/06/02 04:54:38;;;;;;;0.00;0.00;;;;;;;;;;5055135;27;98751;-74
2022/06/02 04:57:23;;;;;;;0.00;0.00;;;;;;;;;;5054406;27;99574;-73
2022/06/02 04:59:53;;;;;;;0.00;0.00;;;;;;;;;;5054384;27;99155;-74
2022/06/02 05:02:19;;;;;;;0.17;0.17;;;;;;;;;;5054819;27;99361;-74
2022/06/02 05:04:51;;;;;;;0.20;0.20;;;;;;;;;;5057812;27;100017;-74
2022/06/02 05:07:21;;;;;;;0.10;0.10;;;;;;;;;;5054604;27;100623;-74
2022/06/02 05:09:50;;;;;;;0.08;0.08;;;;;;;;;;5053324;27;100017;-73
2022/06/02 05:12:23;;;;;;;0.10;0.10;;;;;;;;;;5053435;27;98288;-71
2022/06/02 05:15:08;;;;;;;0.00;0.00;;;;;;;;;;5053596;27;99190;-74
2022/06/02 05:17:37;;;;;;;0.10;0.10;;;;;;;;;;5053624;27;98556;-74
2022/06/02 05:20:13;;;;;;;0.10;0.10;;;;;;;;;;5053355;27;98962;-74
2022/06/02 05:22:55;;;;;;;0.00;0.00;;;;;;;;;;5053289;27;98950;-74
2022/06/02 05:25:21;;;;;;;;;;;;;;;;;;5052673;27;100674;-74
2022/06/02 05:27:54;;;;;;;0.20;0.20;;;;;;;;;;5055815;27;113723;-74
2022/06/02 05:30:39;;;;;;;0.00;0.00;;;;;;;;;;5052634;27;99684;-74
2022/06/02 05:33:25;;;;;;;0.10;0.10;;;;;;;;;;5052290;27;98421;-74
2022/06/02 05:35:54;;;;;;;0.00;0.00;;;;;;;;;;5053021;27;98765;-75
2022/06/02 05:38:36;;;;;;;0.65;0.65;;;;;;;;;;5052484;27;100070;-75
2022/06/02 05:41:18;;;;;;;0.25;0.25;;;;;;;;;;5052855;27;98398;-73
2022/06/02 05:43:54;;;;;;;0.00;0.00;;;;;;;;;;5053142;27;99327;-75
2022/06/02 05:46:35;;;;;;;0.10;0.10;;;;;;;;;;5052441;27;99612;-73
2022/06/02 05:49:14;;;;;;;0.10;0.10;;;;;;;;;;5052641;27;98304;-74
2022/06/02 05:51:49;;;;;;;0.10;0.10;;;;;;;;;;5055239;27;99350;-75
2022/06/02 05:54:38;;;;;;;0.20;0.20;;;;;;;;;;5052336;27;98532;-77
2022/06/02 05:57:13;;;;;;;1.02;0.20;;;;;;;;;;5052529;27;99323;-73
2022/06/02 05:59:52;;;;;;;0.10;0.10;;;;;;;;;;5052233;27;99635;-72
2022/06/02 06:02:33;;;;;;;0.10;0.10;;;;;;;;;;5052556;27;98426;-72
2022/06/02 06:05:18;;;;;;;0.00;0.00;;;;;;;;;;5034196;27;100531;-73
2022/06/02 06:07:50;;;;;;;0.10;0.10;;;;;;;;;;5034420;27;100065;-71
2022/06/02 06:10:33;;;;;;;0.10;0.10;;;;;;;;;;5013069;27;1145900;-71
2022/06/02 06:13:18;;;;;;;0.20;0.20;;;;;;;;;;5053593;27;98338;-72
2022/06/02 06:15:45;;;;;;;0.10;0.10;;;;;;;;;;5056762;27;99513;-72
2022/06/02 06:18:17;;;;;;;0.68;0.63;;;;;;;;;;5053437;27;99397;-73
2022/06/02 06:21:03;;;;;;;0.10;0.10;;;;;;;;;;5053331;27;99560;-72
2022/06/02 06:23:48;;;;;;;0.20;0.20;;;;;;;;;;5053144;27;98427;-73
2022/06/02 06:26:20;;;;;;;0.10;0.10;;;;;;;;;;5053695;27;99159;-71
2022/06/02 06:28:58;;;;;;;0.10;0.10;;;;;;;;;;5034967;27;101151;-75
2022/06/02 06:31:44;;;;;;;0.03;0.03;;;;;;;;;;5053445;27;98469;-74
2022/06/02 06:34:17;;;;;;;0.00;0.00;;;;;;;;;;5053473;27;99423;-75
2022/06/02 06:36:46;;;;;;;0.10;0.10;;;;;;;;;;5053596;27;99294;-75
2022/06/02 06:39:27;;;;;;;0.00;0.00;;;;;;;;;;5056761;27;98414;-74
2022/06/02 06:42:02;;;;;;;0.10;0.10;;;;;;;;;;5053238;27;99577;-76
2022/06/02 06:44:36;;;;;;;0.10;0.10;;;;;;;;;;5051189;27;99108;-75
2022/06/02 06:47:13;;;;;;;0.00;0.00;;;;;;;;;;5053256;27;100426;-75
2022/06/02 06:49:40;;;;;;;0.10;0.10;;;;;;;;;;5052969;27;100022;-76
2022/06/02 06:52:12;;;;;;;0.05;0.05;;;;;;;;;;5053300;27;98430;-74
2022/06/02 06:54:52;;;;;;;0.10;0.10;;;;;;;;;;5035632;27;99120;-75
2022/06/02 06:57:21;;;;;;;0.10;0.10;;;;;;;;;;5052616;27;99525;-76
2022/06/02 06:59:58;;;;;;;0.10;0.10;;;;;;;;;;5056522;27;98344;-76
2022/06/02 07:02:53;;;;;;;0.20;0.20;;;;;;;;;;5036698;27;98260;-75
2022/06/02 07:05:27;;;;;;;0.35;0.35;;;;;;;;;;5053102;27;98308;-75
2022/06/02 07:07:57;;;;;;;0.10;0.10;;;;;;;;;;5053469;27;99883;-77
2022/06/02 07:10:41;;;;;;;0.10;0.10;;;;;;;;;;5051849;27;100246;-78
2022/06/02 07:13:26;;;;;;;0.30;0.30;;;;;;;;;;5053117;27;98241;-77
2022/06/02 07:15:55;;;;;;;0.30;0.30;;;;;;;;;;5053028;27;99688;-79
2022/06/02 07:18:29;;;;;;;0.10;0.10;;;;;;;;;;5052724;27;99491;-79
2022/06/02 07:21:15;;;;;;;0.15;0.15;;;;;;;;;;5053148;27;99398;-78
2022/06/02 07:24:03;;;;;;;0.03;0.03;;;;;;;;;;5055977;27;99546;-77
2022/06/02 07:26:48;;;;;;;0.00;0.00;;;;;;;;;;5052849;27;98332;-77
2022/06/02 07:29:21;;;;;;;0.10;0.10;;;;;;;;;;5053410;27;99634;-79
2022/06/02 07:32:02;;;;;;;0.10;0.10;;;;;;;;;;5052426;27;99630;-79
2022/06/02 07:34:30;;;;;;;0.10;0.10;;;;;;;;;;5052609;27;99015;-78
2022/06/02 07:37:13;;;;;;;0.20;0.20;;;;;;;;;;5052270;27;99396;-77
2022/06/02 07:39:58;;;;;;;0.17;0.17;;;;;;;;;;5034175;27;101188;-79
2022/06/02 07:42:34;;;;;;;0.10;0.10;;;;;;;;;;5052685;27;98360;-77
2022/06/02 07:45:19;;;;;;;0.10;0.10;;;;;;;;;;5052125;27;98801;-78
2022/06/02 07:47:54;;;;;;;0.10;0.10;;;;;;;;;;5055594;27;99857;-76
2022/06/02 07:50:31;;;;;;;0.00;0.00;;;;;;;;;;5052679;27;99341;-76
2022/06/02 07:53:04;;;;;;;0.10;0.10;;;;;;;;;;5052023;27;99641;-78
2022/06/02 07:55:42;;;;;;;0.10;0.10;;;;;;;;;;5053499;27;97728;-77
2022/06/02 07:58:27;;;;;;;0.10;0.10;;;;;;;;;;5055904;27;98985;-77
2022/06/02 08:01:00;;;;;;;0.10;0.10;;;;;;;;;;5056156;27;99685;-80
2022/06/02 08:03:33;;;;;;;0.22;0.22;;;;;;;;;;5055549;27;98962;-78
2022/06/02 08:06:19;;;;;;;0.10;0.10;;;;;;;;;;5055691;27;100036;-78
2022/06/02 08:09:24;;;;;;;0.10;0.10;;;;;;;;;;5054965;27;99612;-84
2022/06/02 08:12:01;;;;;;;0.30;0.30;;;;;;;;;;5040241;27;98450;-76
2022/06/02 08:14:33;;;;;;;0.13;0.13;;;;;;;;;;5054896;27;100525;-78
2022/06/02 08:16:59;;;;;;;;;;;;;;;;;;5020957;27;98401;-77
2022/06/02 08:19:44;;;;;;;0.10;0.10;;;;;;;;;;5054614;27;128472;-77
2022/06/02 08:22:11;;;;;;;0.10;0.10;;;;;;;;;;5055561;27;99575;-75
2022/06/02 08:24:54;;;;;;;0.10;0.10;;;;;;;;;;5055159;27;98361;-75
2022/06/02 08:27:27;;;;;;;0.10;0.10;;;;;;;;;;5037861;27;99446;-77
2022/06/02 08:30:03;;;;;;;0.10;0.10;;;;;;;;;;5054580;27;99970;-72
2022/06/02 08:32:35;;;;;;;0.20;0.20;;;;;;;;;;5055389;27;99611;-75
2022/06/02 08:35:12;;;;;;;0.65;0.65;;;;;;;;;;5057929;27;99458;-75
2022/06/02 08:37:38;;;;;;;0.10;0.10;;;;;;;;;;5055177;27;98391;-75
2022/06/02 08:40:24;;;;;;;0.17;0.17;;;;;;;;;;5055304;27;99426;-76
2022/06/02 08:42:52;;;;;;;0.10;0.10;;;;;;;;;;5054835;27;99686;-74
2022/06/02 08:45:37;;;;;;;0.10;0.10;;;;;;;;;;5054701;27;98430;-75
2022/06/02 08:48:22;;;;;;;0.05;0.05;;;;;;;;;;5055709;27;99732;-76
2022/06/02 08:51:00;;;;;;;0.10;0.10;;;;;;;;;;5054702;27;99357;-75
2022/06/02 08:53:59;;;;;;;0.10;0.10;;;;;;;;;;5054782;27;98391;-75
2022/06/02 08:56:44;;;;;;;0.03;0.03;;;;;;;;;;5054294;27;99345;-75
2022/06/02 08:59:29;;;;;;;0.10;0.10;;;;;;;;;;5057928;27;99675;-75
2022/06/02 09:02:02;;;;;;;0.10;0.10;;;;;;;;;;5054602;27;99583;-75
2022/06/02 09:04:47;;;;;;;0.25;0.25;;;;;;;;;;5054454;27;99482;-75
2022/06/02 09:07:19;;;;;;;0.20;0.20;;;;;;;;;;5053704;27;98352;-75
2022/06/02 09:10:12;;;;;;;0.20;0.20;;;;;;;;;;5054531;27;99288;-76
2022/06/02 09:13:00;;;;;;;0.10;0.10;;;;;;;;;;5053939;27;99974;-75
2022/06/02 09:15:50;;;;;;;0.10;0.10;;;;;;;;;;5055055;27;97779;-76
2022/06/02 09:18:35;;;;;;;0.10;0.10;;;;;;;;;;5054486;27;98891;-75
2022/06/02 09:21:41;;;;;;;0.10;0.10;;;;;;;;;;5038967;27;101312;-75
2022/06/02 09:24:14;;;;;;;0.30;0.30;;;;;;;;;;5036030;27;100965;-75
2022/06/02 09:26:46;;;;;;;0.10;0.10;;;;;;;;;;5054176;27;99744;-75
2022/06/02 09:29:21;;;;;;;0.10;0.10;;;;;;;;;;5053895;27;99141;-75
2022/06/02 09:32:06;;;;;;;0.10;0.10;;;;;;;;;;5054336;27;99408;-75
2022/06/02 09:34:41;;;;;;;0.10;0.10;;;;;;;;;;5054000;27;99608;-74
2022/06/02 09:37:33;;;;;;;0.10;0.10;;;;;;;;;;5054220;27;98456;-74
2022/06/02 09:39:59;;;;;;;;;;;;;;;;;;5054857;27;99404;-74
2022/06/02 09:42:34;;;;;;;0.10;0.10;;;;;;;;;;5053854;27;120180;-74
2022/06/02 09:45:16;;;;;;;0.20;0.20;;;;;;;;;;5057561;27;98490;-75
2022/06/02 09:47:42;;;;;;;;;;;;;;;;;;5054232;27;99957;-75
2022/06/02 09:50:41;;;;;;;0.20;0.20;;;;;;;;;;5052380;27;117796;-75
2022/06/02 09:53:15;;;;;;;0.10;0.10;;;;;;;;;;4998703;27;100189;-75
2022/06/02 09:56:00;;;;;;;0.40;0.40;;;;;;;;;;5053653;27;99149;-75
2022/06/02 09:58:35;;;;;;;0.10;0.10;;;;;;;;;;5053531;27;98360;-75
2022/06/02 10:01:10;;;;;;;0.20;0.20;;;;;;;;;;5054043;27;99281;-75
2022/06/02 10:03:56;;;;;;;0.10;0.10;;;;;;;;;;5053471;27;99286;-75
2022/06/02 10:06:27;;;;;;;0.32;0.32;;;;;;;;;;5053965;27;98990;-75
2022/06/02 10:09:06;;;;;;;0.10;0.10;;;;;;;;;;5056443;27;99348;-75
2022/06/02 10:11:53;;;;;;;0.10;0.10;;;;;;;;;;5053958;27;98235;-74
2022/06/02 10:14:20;;;;;;;0.10;0.10;;;;;;;;;;5053714;27;98745;-74
2022/06/02 10:17:01;;;;;;;0.10;0.10;;;;;;;;;;5052873;27;99865;-74
2022/06/02 10:19:46;;;;;;;0.13;0.13;;;;;;;;;;5052804;27;99507;-74
2022/06/02 10:22:28;;;;;;;0.30;0.30;;;;;;;;;;5053529;27;99608;-73
2022/06/02 10:24:54;;;;;;;;;;;;;;;;;;5053697;27;99121;-69
2022/06/02 10:27:51;;;;;;;0.10;0.10;;;;;;;;;;5052601;27;117866;-74
2022/06/02 10:30:20;;;;;;;0.10;0.10;;;;;;;;;;5053235;27;98643;-73
2022/06/02 10:33:16;;;;;;;0.10;0.10;;;;;;;;;;5056182;27;99770;-73
2022/06/02 10:36:03;;;;;;;0.10;0.10;;;;;;;;;;5036077;27;100353;-72
2022/06/02 10:38:41;;;;;;;0.10;0.10;;;;;;;;;;5052757;27;99524;-76
2022/06/02 10:41:23;;;;;;;0.20;0.20;;;;;;;;;;5053652;27;98558;-75
2022/06/02 10:44:08;;;;;;;0.10;0.10;;;;;;;;;;5053012;27;99167;-77
2022/06/02 10:46:53;;;;;;;0.10;0.10;;;;;;;;;;5034831;27;102730;-76
2022/06/02 10:49:20;;;;;;;0.10;0.10;;;;;;;;;;5053151;27;98439;-77
2022/06/02 10:52:04;;;;;;;0.10;0.10;;;;;;;;;;5053438;27;99352;-76
2022/06/02 10:54:51;;;;;;;0.10;0.10;;;;;;;;;;5052536;27;99014;-78
2022/06/02 10:57:25;;;;;;;0.10;0.10;;;;;;;;;;5038416;27;98577;-77
2022/06/02 10:59:54;;;;;;;0.10;0.10;;;;;;;;;;5052775;27;99289;-77
2022/06/02 11:02:23;;;;;;;0.10;0.10;;;;;;;;;;5053724;27;97590;-78
2022/06/02 11:05:09;;;;;;;0.10;0.10;;;;;;;;;;5035555;27;98368;-78
2022/06/02 11:07:57;;;;;;;0.10;0.10;;;;;;;;;;5052662;27;99166;-79
2022/06/02 11:10:54;;;;;;;0.10;0.10;;;;;;;;;;5052130;27;99161;-79
2022/06/02 11:13:23;;;;;;;;;;;;;;;;;;5035417;27;99978;-78
2022/06/02 11:16:16;;;;;;;0.10;0.10;;;;;;;;;;5033819;27;127186;-78
2022/06/02 11:18:52;;;;;;;0.20;0.20;;;;;;;;;;5004676;27;98551;-76
2022/06/02 11:21:32;;;;;;;0.22;0.22;;;;;;;;;;5038084;27;99008;-82
2022/06/02 11:24:14;;;;;;;0.55;0.55;;;;;;;;;;5052821;27;98341;-77
2022/06/02 11:26:51;;;;;;;0.10;0.10;;;;;;;;;;5053034;27;98900;-77
2022/06/02 11:29:36;;;;;;;0.25;0.25;;;;;;;;;;5034758;27;101201;-75
2022/06/02 11:32:08;;;;;;;0.20;0.20;;;;;;;;;;5055777;27;98413;-76
2022/06/02 11:34:35;;;;;;;0.20;0.20;;;;;;;;;;5038378;27;99489;-77
2022/06/02 11:37:11;;;;;;;0.10;0.10;;;;;;;;;;5055395;27;100751;-79
2022/06/02 11:39:37;;;;;;;0.10;0.10;;;;;;;;;;5055813;27;98346;-77
2022/06/02 11:42:23;;;;;;;0.10;0.10;;;;;;;;;;5059091;27;99236;-77
2022/06/02 11:45:08;;;;;;;0.10;0.10;;;;;;;;;;5055617;27;98368;-77
2022/06/02 11:47:53;;;;;;;0.10;0.10;;;;;;;;;;5056206;27;99507;-77
2022/06/02 11:50:32;;;;;;;0.10;0.10;;;;;;;;;;5055674;27;99822;-77
2022/06/02 11:53:08;;;;;;;0.20;0.20;;;;;;;;;;5056136;27;98502;-79
2022/06/02 11:55:45;;;;;;;0.30;0.30;;;;;;;;;;5038716;27;99635;-77
2022/06/02 11:58:24;;;;;;;0.25;0.25;;;;;;;;;;5055564;27;99538;-78
2022/06/02 12:00:50;;;;;;;0.10;0.10;;;;;;;;;;5056027;27;98436;-76
2022/06/02 12:03:36;;;;;;;0.10;0.10;;;;;;;;;;5055793;27;99029;-76
2022/06/02 12:06:21;;;;;;;0.10;0.10;;;;;;;;;;5064809;27;99791;-75
2022/06/02 12:09:03;;;;;;;0.10;0.10;;;;;;;;;;5055371;27;99780;-76
2022/06/02 12:11:29;;;;;;;0.10;0.10;;;;;;;;;;5037465;27;100305;-76
2022/06/02 12:14:01;;;;;;;0.10;0.10;;;;;;;;;;5044075;27;100175;-76
2022/06/02 12:16:37;;;;;;;0.10;0.10;;;;;;;;;;5044449;27;98715;-76
2022/06/02 12:19:10;;;;;;;0.15;0.15;;;;;;;;;;5037439;27;100134;-76
2022/06/02 12:21:46;;;;;;;0.10;0.10;;;;;;;;;;5035810;28;97683;-74
2022/06/02 12:24:19;;;;;;;0.20;0.20;;;;;;;;;;5035286;28;99194;-77
2022/06/02 12:26:49;;;;;;;0.10;0.10;;;;;;;;;;5034817;28;99974;-75
2022/06/02 12:29:24;;;;;;;0.10;0.10;;;;;;;;;;5051275;27;99217;-75
2022/06/02 12:31:57;;;;;;;0.20;0.20;;;;;;;;;;5054982;27;99287;-76
2022/06/02 12:34:35;;;;;;;0.10;0.10;;;;;;;;;;5055319;27;98334;-76
2022/06/02 12:37:20;;;;;;;0.10;0.10;;;;;;;;;;5055141;27;99696;-77
2022/06/02 12:40:06;;;;;;;0.10;0.10;;;;;;;;;;5051338;27;99717;-77
2022/06/02 12:42:40;;;;;;;0.10;0.10;;;;;;;;;;5045769;27;98462;-75
2022/06/02 12:45:12;;;;;;;0.15;0.15;;;;;;;;;;5045146;27;99466;-77
2022/06/02 12:47:57;;;;;;;0.13;0.10;;;;;;;;;;5043985;27;98889;-77
2022/06/02 12:50:35;;;;;;;0.10;0.10;;;;;;;;;;5045028;27;98566;-74
2022/06/02 12:53:14;;;;;;;0.80;0.40;;;;;;;;;;5026277;27;99365;-79
2022/06/02 12:55:41;;;;;;;0.10;0.10;;;;;;;;;;5036291;27;99253;-76
2022/06/02 12:58:29;;;;;;;0.10;0.10;;;;;;;;;;5034388;27;99703;-77
2022/06/02 13:01:12;;;;;;;0.10;0.10;;;;;;;;;;5034016;27;99208;-76
2022/06/02 13:03:58;;;;;;;0.17;0.17;;;;;;;;;;5016154;27;98545;-75
2022/06/02 13:06:24;;;;;;;0.20;0.20;;;;;;;;;;5034123;27;99587;-75
2022/06/02 13:08:54;;;;;;;0.10;0.10;;;;;;;;;;5032966;27;99029;-75
2022/06/02 13:11:48;;;;;;;0.10;0.10;;;;;;;;;;5034195;27;98420;-75
2022/06/02 13:14:26;;;;;;;0.10;0.10;;;;;;;;;;5002444;27;99019;-76
2022/06/02 13:17:05;;;;;;;0.20;0.20;;;;;;;;;;5036898;27;99140;-75
2022/06/02 13:19:43;;;;;;;0.17;0.17;;;;;;;;;;5037565;27;98815;-74
2022/06/02 13:22:28;;;;;;;0.10;0.10;;;;;;;;;;5032804;27;100466;-78
2022/06/02 13:25:10;;;;;;;0.10;0.10;;;;;;;;;;5033605;27;98650;-76
2022/06/02 13:28:05;;;;;;;0.10;0.10;;;;;;;;;;5032830;27;98486;-75
2022/06/02 13:30:40;;;;;;;0.10;0.10;;;;;;;;;;4977072;28;99766;-76
2022/06/02 13:33:16;;;;;;;0.10;0.10;;;;;;;;;;5032768;27;98482;-78
2022/06/02 13:35:46;;;;;;;0.10;0.10;;;;;;;;;;5033306;27;99526;-75
2022/06/02 13:38:30;;;;;;;0.10;0.10;;;;;;;;;;5033322;27;99247;-75
2022/06/02 13:41:15;;;;;;;0.10;0.10;;;;;;;;;;5032147;27;97704;-77
2022/06/02 13:43:48;;;;;;;0.10;0.10;;;;;;;;;;5033800;27;99949;-76
2022/06/02 13:46:28;;;;;;;0.10;0.10;;;;;;;;;;5033147;27;98900;-76
2022/06/02 13:49:04;;;;;;;0.10;0.10;;;;;;;;;;5032955;27;99224;-77
2022/06/02 13:52:02;;;;;;;0.10;0.10;;;;;;;;;;5032931;27;99940;-77
2022/06/02 13:57:32;;;;;;;0.10;0.10;;;;;;;;;;5033303;27;99493;-76
2022/06/02 14:00:04;;;;;;;0.13;0.13;;;;;;;;;;5032600;27;99620;-76
2022/06/02 14:02:49;;;;;;;0.10;0.10;;;;;;;;;;5033251;27;98513;-75
2022/06/02 14:05:22;;;;;;;0.10;0.10;;;;;;;;;;5016830;28;100442;-78
2022/06/02 14:08:14;;;;;;;0.00;0.00;;;;;;;;;;5037139;27;97712;-75
2022/06/02 14:10:41;;;;;;;0.10;0.10;;;;;;;;;;5033336;27;99053;-74
2022/06/02 14:13:07;;;;;;;0.10;0.10;;;;;;;;;;5031952;27;100805;-76
2022/06/02 14:15:33;;;;;;;0.10;0.10;;;;;;;;;;5032289;27;100431;-75
2022/06/02 14:18:03;;;;;;;0.13;0.13;;;;;;;;;;5033035;27;100038;-75
2022/06/02 14:20:36;;;;;;;0.10;0.10;;;;;;;;;;5032301;27;99629;-76
2022/06/02 14:23:02;;;;;;;0.15;0.15;;;;;;;;;;5032531;27;98369;-75
2022/06/02 14:25:52;;;;;;;0.10;0.10;;;;;;;;;;5035373;27;99428;-75
2022/06/02 14:28:43;;;;;;;0.00;0.00;;;;;;;;;;5032929;27;98359;-75
2022/06/02 14:31:15;;;;;;;0.10;0.10;;;;;;;;;;5030196;27;99013;-80
2022/06/02 14:33:45;;;;;;;0.10;0.10;;;;;;;;;;5018299;27;101401;-76
2022/06/02 14:36:12;;;;;;;0.10;0.10;;;;;;;;;;5032343;27;98699;-70
2022/06/02 14:42:10;;;;;;;0.20;0.20;;;;;;;;;;5031091;27;100317;-75
2022/06/02 14:45:01;;;;;;;0.08;0.08;;;;;;;;;;5032434;27;99791;-75
2022/06/02 14:47:34;;;;;;;0.10;0.10;;;;;;;;;;5032467;27;99790;-74
2022/06/02 14:50:33;;;;;;;0.10;0.10;;;;;;;;;;5035633;27;99522;-74
2022/06/02 14:53:10;;;;;;;0.17;0.17;;;;;;;;;;5032214;27;99523;-73
2022/06/02 14:55:36;;;;;;;0.10;0.10;;;;;;;;;;5040424;27;99063;-73
2022/06/02 14:58:21;;;;;;;0.10;0.10;;;;;;;;;;5032727;27;98492;-73
2022/06/02 15:01:06;;;;;;;0.10;0.10;;;;;;;;;;5032700;27;99355;-77
2022/06/02 15:03:52;;;;;;;0.10;0.10;;;;;;;;;;5030840;27;100306;-76
2022/06/02 15:06:37;;;;;;;0.13;0.13;;;;;;;;;;5034114;27;99213;-75
2022/06/02 15:09:16;;;;;;;0.13;0.13;;;;;;;;;;5035033;27;99776;-77
2022/06/02 15:12:06;;;;;;;0.10;0.10;;;;;;;;;;5035189;27;99533;-74
2022/06/02 15:14:49;;;;;;;0.38;0.20;;;;;;;;;;5040012;27;98423;-75
2022/06/02 15:17:34;;;;;;;0.10;0.10;;;;;;;;;;5035424;27;99011;-75
2022/06/02 15:20:00;;;;;;;0.08;0.08;;;;;;;;;;5018049;27;98363;-75
2022/06/02 15:22:50;;;;;;;0.00;0.00;;;;;;;;;;5035837;27;99240;-74
2022/06/02 15:25:20;;;;;;;0.00;0.00;;;;;;;;;;5034834;27;100023;-72
2022/06/02 15:27:56;;;;;;;0.10;0.10;;;;;;;;;;5036323;27;97920;-74
2022/06/02 15:30:41;;;;;;;0.10;0.10;;;;;;;;;;5035381;27;98509;-73
2022/06/02 15:33:27;;;;;;;0.13;0.13;;;;;;;;;;5034495;27;99793;-72
2022/06/02 15:36:09;;;;;;;0.10;0.10;;;;;;;;;;5018362;28;99203;-73
2022/06/02 15:38:36;;;;;;;0.10;0.10;;;;;;;;;;5038029;27;100282;-73
2022/06/02 15:41:14;;;;;;;0.10;0.10;;;;;;;;;;5035408;27;98430;-74
2022/06/02 15:44:05;;;;;;;0.10;0.10;;;;;;;;;;5037663;27;99508;-73
2022/06/02 15:46:51;;;;;;;0.10;0.10;;;;;;;;;;5034886;27;100030;-76
2022/06/02 15:49:26;;;;;;;0.10;0.10;;;;;;;;;;5035121;27;98534;-75
2022/06/02 15:52:19;;;;;;;0.00;0.00;;;;;;;;;;5035407;27;99988;-75
2022/06/02 15:55:05;;;;;;;0.00;0.00;;;;;;;;;;5031744;27;98536;-75
2022/06/02 15:57:41;;;;;;;0.00;0.00;;;;;;;;;;5035254;27;98612;-74
2022/06/02 16:00:28;;;;;;;0.17;0.17;;;;;;;;;;5037932;27;98788;-77
2022/06/02 16:02:54;;;;;;;0.10;0.10;;;;;;;;;;5034343;27;99245;-76
2022/06/02 16:05:39;;;;;;;0.20;0.20;;;;;;;;;;5038253;27;100191;-78